Дата Время Давление Темп. Влажн. Скор.ветра Напр.ветра Макс.ветер Осадки/час Осадки
19.03.19 23:00 749.9 2.4 95.9 1.7 194 3.8 0 2.4
19.03.19 22:00 749.7 2.8 95.8 2.4 191 4.2 0 2.4
19.03.19 21:00 749.7 3.2 95.5 2.3 195 3.9 0 2.4
19.03.19 20:00 749.4 3.4 95 2.4 194 4.6 0 2.4
19.03.19 19:00 749 3.7 94.2 2.3 200 4.4 0 2.4
19.03.19 18:00 748.8 4.1 93.5 2 203 4.4 0 2.4
19.03.19 17:00 748.8 4.4 92.8 1.8 220 4.4 0 2.4
19.03.19 16:00 748.4 4.5 92.1 2 201 4.2 0 2.4
19.03.19 15:00 748 4.9 91.6 1.8 212 4.7 0 2.4
19.03.19 14:00 747.8 4.3 92 2.5 196 6.9 0 2.4
19.03.19 13:00 747.6 4.2 91.9 2.4 198 5.3 0 2.4
19.03.19 12:00 747.2 4.2 92.8 1.7 198 4.9 0 2.4
19.03.19 11:00 747.1 3.7 92.7 2.3 188 5.1 0.4 2.4
19.03.19 10:00 746.5 3.7 91.6 2.5 187 5 0.8 2
19.03.19 09:00 746.5 3.7 88 2.5 199 5.3 1.2 1.2
19.03.19 08:00 746.1 4.3 81.4 2.2 196 5.9 0 0
19.03.19 07:00 745.7 3.9 82.5 3 178 6.6 0 0
19.03.19 06:00 745.9 3.5 85.1 2.7 180 5.2 0 0
19.03.19 05:00 746.2 3.1 87.6 2.6 174 5.7 0 0
19.03.19 04:00 746.5 3.1 86 2.5 180 4.9 0 0
19.03.19 03:00 746.8 3.5 85.1 2.4 177 5.1 0 0
19.03.19 02:00 746.9 3.1 86.4 3.1 177 5.7 0 0
19.03.19 01:00 747.1 2.9 86.9 2.8 176 7.3 0 0
19.03.19 00:00 747.3 2.8 85.7 3.3 177 6.8 0 0